createdAt,value
2023-05-17T00:00:01.518Z,19.62
2023-05-17T00:02:29.537Z,19.62
2023-05-17T00:04:57.405Z,19.61
2023-05-17T00:07:25.187Z,19.60
2023-05-17T00:09:52.864Z,19.59
2023-05-17T00:12:20.670Z,19.58
2023-05-17T00:14:48.732Z,19.57
2023-05-17T00:17:16.856Z,19.56
2023-05-17T00:19:44.582Z,19.56
2023-05-17T00:22:12.345Z,19.54
2023-05-17T00:24:40.094Z,19.52
2023-05-17T00:27:07.714Z,19.53
2023-05-17T00:29:35.507Z,19.52
2023-05-17T00:32:04.773Z,19.51
2023-05-17T00:34:32.707Z,19.52
2023-05-17T00:37:00.751Z,19.50
2023-05-17T00:39:28.386Z,19.49
2023-05-17T00:41:55.836Z,19.49
2023-05-17T00:44:23.359Z,19.49
2023-05-17T00:46:50.917Z,19.46
2023-05-17T00:49:18.462Z,19.45
2023-05-17T00:51:46.037Z,19.46
2023-05-17T00:54:13.713Z,19.44
2023-05-17T00:56:41.197Z,19.43
2023-05-17T00:59:08.675Z,19.41
2023-05-17T01:01:36.123Z,19.39
2023-05-17T01:04:03.711Z,19.37
2023-05-17T01:06:31.612Z,19.35
2023-05-17T01:09:00.177Z,19.34
2023-05-17T01:11:53.130Z,19.29
2023-05-17T01:14:39.189Z,19.26
2023-05-17T01:17:10.515Z,19.27
2023-05-17T01:19:54.767Z,19.24
2023-05-17T01:22:52.044Z,19.21
2023-05-17T01:25:24.609Z,19.21
2023-05-17T01:27:52.105Z,19.19
2023-05-17T01:30:20.047Z,19.17
2023-05-17T01:32:47.819Z,19.13
2023-05-17T01:35:15.765Z,19.12
2023-05-17T01:37:43.239Z,19.12
2023-05-17T01:40:11.040Z,19.10
2023-05-17T01:42:42.613Z,19.08
2023-05-17T01:45:27.056Z,19.06
2023-05-17T01:48:21.799Z,19.03
2023-05-17T01:50:53.046Z,19.00
2023-05-17T01:53:26.303Z,19.00
2023-05-17T01:55:55.644Z,19.00
2023-05-17T01:58:26.388Z,18.99
2023-05-17T02:00:55.905Z,18.99
2023-05-17T02:03:23.465Z,18.96
2023-05-17T02:05:53.428Z,18.97
2023-05-17T02:08:21.111Z,18.97
2023-05-17T02:10:48.664Z,18.98
2023-05-17T02:13:16.236Z,18.96
2023-05-17T02:15:44.624Z,18.96
2023-05-17T02:18:13.123Z,18.95
2023-05-17T02:20:41.366Z,18.93
2023-05-17T02:23:08.836Z,18.92
2023-05-17T02:25:37.448Z,18.92
2023-05-17T02:28:06.520Z,18.92
2023-05-17T02:30:35.990Z,18.91
2023-05-17T02:33:03.461Z,18.90
2023-05-17T02:35:31.161Z,18.89
2023-05-17T02:37:59.120Z,18.89
2023-05-17T02:40:26.587Z,18.90
2023-05-17T02:42:54.606Z,18.91
2023-05-17T02:45:21.978Z,18.88
2023-05-17T02:47:49.720Z,18.86
2023-05-17T02:50:17.527Z,18.86
2023-05-17T02:52:45.162Z,18.87
2023-05-17T02:55:12.624Z,18.86
2023-05-17T02:57:40.099Z,18.85
2023-05-17T03:00:09.034Z,18.86
2023-05-17T03:02:36.870Z,18.88
2023-05-17T03:05:08.599Z,18.88
2023-05-17T03:07:38.859Z,18.90
2023-05-17T03:10:07.512Z,18.90
2023-05-17T03:12:40.981Z,18.77
2023-05-17T03:15:09.382Z,18.86
2023-05-17T03:17:37.743Z,18.90
2023-05-17T03:20:07.900Z,18.91
2023-05-17T03:22:37.071Z,18.92
2023-05-17T03:25:05.929Z,18.94
2023-05-17T03:27:34.391Z,18.94
2023-05-17T03:30:02.224Z,18.96
2023-05-17T03:32:31.678Z,18.97
2023-05-17T03:34:59.454Z,18.99
2023-05-17T03:37:28.026Z,19.01
2023-05-17T03:39:56.083Z,19.03
2023-05-17T03:42:23.789Z,19.02
2023-05-17T03:44:52.429Z,19.05
2023-05-17T03:47:24.003Z,19.04
2023-05-17T03:49:52.204Z,19.07
2023-05-17T03:52:20.371Z,19.09
2023-05-17T03:54:49.339Z,19.12
2023-05-17T03:57:17.400Z,19.17
2023-05-17T03:59:46.035Z,19.18
2023-05-17T04:02:16.849Z,19.21
2023-05-17T04:04:51.221Z,19.24
2023-05-17T04:07:19.590Z,19.26
2023-05-17T04:09:47.689Z,19.28
2023-05-17T04:12:15.341Z,19.31
2023-05-17T04:14:43.114Z,19.36
2023-05-17T04:17:10.801Z,19.37
2023-05-17T04:19:38.581Z,19.40
2023-05-17T04:22:06.220Z,19.42
2023-05-17T04:24:34.550Z,19.45
2023-05-17T04:27:04.892Z,19.46
2023-05-17T04:29:32.808Z,19.49
2023-05-17T04:32:00.677Z,19.51
2023-05-17T04:34:28.348Z,19.55
2023-05-17T04:36:57.542Z,19.59
2023-05-17T04:39:26.134Z,19.64
2023-05-17T04:41:53.772Z,19.67
2023-05-17T04:44:21.689Z,19.71
2023-05-17T04:46:53.300Z,19.76
2023-05-17T04:49:20.843Z,19.80
2023-05-17T04:51:48.548Z,19.84
2023-05-17T04:54:16.370Z,19.85
2023-05-17T04:56:44.254Z,19.87
2023-05-17T04:59:16.528Z,19.87
2023-05-17T05:01:44.186Z,19.88
2023-05-17T05:04:11.854Z,19.88
2023-05-17T05:06:43.128Z,19.88
2023-05-17T05:09:11.067Z,19.88
2023-05-17T05:11:39.794Z,19.88
2023-05-17T05:14:07.742Z,19.90
2023-05-17T05:16:36.621Z,19.91
2023-05-17T05:19:04.472Z,19.93
2023-05-17T05:21:32.994Z,19.95
2023-05-17T05:24:01.083Z,19.99
2023-05-17T05:26:28.882Z,20.03
2023-05-17T05:29:01.118Z,20.07
2023-05-17T05:31:30.878Z,20.10
2023-05-17T05:34:01.303Z,20.11
2023-05-17T05:36:29.740Z,20.14
2023-05-17T05:38:57.649Z,20.16
2023-05-17T05:41:25.428Z,20.18
2023-05-17T05:43:53.052Z,20.20
2023-05-17T05:46:21.374Z,20.22
2023-05-17T05:48:50.150Z,20.25
2023-05-17T05:51:22.724Z,20.28
2023-05-17T05:53:51.946Z,20.31
2023-05-17T05:56:20.597Z,20.33
2023-05-17T05:58:48.175Z,20.35
2023-05-17T06:01:16.482Z,20.40
2023-05-17T06:03:43.935Z,20.44
2023-05-17T06:06:11.575Z,20.48
2023-05-17T06:08:39.487Z,20.51
2023-05-17T06:11:07.313Z,20.53
2023-05-17T06:13:36.679Z,20.54
2023-05-17T06:16:06.066Z,20.58
2023-05-17T06:18:33.841Z,20.61
2023-05-17T06:21:01.462Z,20.64
2023-05-17T06:23:29.333Z,20.70
2023-05-17T06:25:56.932Z,20.75
2023-05-17T06:28:24.532Z,20.80
2023-05-17T06:30:52.178Z,20.84
2023-05-17T06:33:19.821Z,20.88
2023-05-17T06:35:55.549Z,20.94
2023-05-17T06:38:23.740Z,21.02
2023-05-17T06:40:54.782Z,21.10
2023-05-17T06:43:22.657Z,21.17
2023-05-17T06:45:50.560Z,21.23
2023-05-17T06:48:18.307Z,21.30
2023-05-17T06:50:46.069Z,21.36
2023-05-17T06:53:13.882Z,21.41
2023-05-17T06:55:43.345Z,21.46
2023-05-17T06:58:11.094Z,21.53
2023-05-17T07:00:38.982Z,21.60
2023-05-17T07:03:25.461Z,21.64
2023-05-17T07:05:53.068Z,21.67
2023-05-17T07:08:21.168Z,21.75
2023-05-17T07:10:52.184Z,21.83
2023-05-17T07:13:19.988Z,21.90
2023-05-17T07:15:50.435Z,21.94
2023-05-17T07:18:18.256Z,22.00
2023-05-17T07:20:46.549Z,22.05
2023-05-17T07:23:14.160Z,22.08
2023-05-17T07:25:43.220Z,22.13
2023-05-17T07:28:11.289Z,22.15
2023-05-17T07:30:38.810Z,22.23
2023-05-17T07:33:09.762Z,22.30
2023-05-17T07:35:37.884Z,22.36
2023-05-17T07:38:05.632Z,22.43
2023-05-17T07:40:33.410Z,22.48
2023-05-17T07:43:01.157Z,22.49
2023-05-17T07:45:28.994Z,22.56
2023-05-17T07:47:57.219Z,22.62
2023-05-17T07:50:24.990Z,22.68
2023-05-17T07:52:52.774Z,22.64
2023-05-17T07:55:21.446Z,22.72
2023-05-17T07:57:48.850Z,22.82
2023-05-17T08:00:19.628Z,22.87
2023-05-17T08:02:47.343Z,22.90
2023-05-17T08:05:14.853Z,22.92
2023-05-17T08:07:42.538Z,22.87
2023-05-17T08:10:10.756Z,22.93
2023-05-17T08:12:38.662Z,22.87
2023-05-17T08:15:06.688Z,22.97
2023-05-17T08:17:34.452Z,23.05
2023-05-17T08:20:02.186Z,23.10
2023-05-17T08:22:30.029Z,23.18
2023-05-17T08:24:57.721Z,23.16
2023-05-17T08:27:26.993Z,23.21
2023-05-17T08:29:58.441Z,23.24
2023-05-17T08:32:26.485Z,23.28
2023-05-17T08:34:54.657Z,23.26
2023-05-17T08:37:22.250Z,23.38
2023-05-17T08:39:51.521Z,23.39
2023-05-17T08:42:22.517Z,23.45
2023-05-17T08:44:50.552Z,23.55
2023-05-17T08:47:29.835Z,23.61
2023-05-17T08:50:00.509Z,23.71
2023-05-17T08:52:34.707Z,23.82
2023-05-17T08:55:05.331Z,23.90
2023-05-17T08:57:33.884Z,24.02
2023-05-17T09:00:01.771Z,24.12
2023-05-17T09:02:30.210Z,24.02
2023-05-17T09:04:58.175Z,24.03
2023-05-17T09:07:25.888Z,24.06
2023-05-17T09:09:54.211Z,23.89
2023-05-17T09:12:23.531Z,23.94
2023-05-17T09:14:52.987Z,24.03
2023-05-17T09:17:21.575Z,24.15
2023-05-17T09:19:50.450Z,24.26
2023-05-17T09:22:18.387Z,24.30
2023-05-17T09:24:46.908Z,24.38
2023-05-17T09:27:18.263Z,24.45
2023-05-17T09:29:46.433Z,24.53
2023-05-17T09:32:17.988Z,24.56
2023-05-17T09:34:47.075Z,24.63
2023-05-17T09:37:16.088Z,24.71
2023-05-17T09:39:47.067Z,24.73
2023-05-17T09:42:15.252Z,24.57
2023-05-17T09:44:50.088Z,24.50
2023-05-17T09:47:24.934Z,24.51
2023-05-17T09:49:52.718Z,24.60
2023-05-17T09:52:20.971Z,24.47
2023-05-17T09:54:55.394Z,24.48
2023-05-17T09:57:23.108Z,24.42
2023-05-17T09:59:50.843Z,24.64
2023-05-17T10:02:23.446Z,24.81
2023-05-17T10:04:51.633Z,24.86
2023-05-17T10:07:19.910Z,24.99
2023-05-17T10:09:48.908Z,25.02
2023-05-17T10:12:23.717Z,25.12
2023-05-17T10:14:52.969Z,24.88
2023-05-17T10:17:20.810Z,25.03
2023-05-17T10:19:48.851Z,25.09
2023-05-17T10:22:23.283Z,25.19
2023-05-17T10:24:51.876Z,25.15
2023-05-17T10:27:19.962Z,25.17
2023-05-17T10:29:50.252Z,25.20
2023-05-17T10:32:19.598Z,25.24
2023-05-17T10:35:01.525Z,25.23
2023-05-17T10:37:34.354Z,25.31
2023-05-17T10:40:02.113Z,25.13
2023-05-17T10:42:29.770Z,25.16
2023-05-17T10:44:57.404Z,24.91
2023-05-17T10:47:32.134Z,25.07
2023-05-17T10:49:59.724Z,25.03
2023-05-17T10:52:27.564Z,25.06
2023-05-17T10:54:56.518Z,25.11
2023-05-17T10:57:49.849Z,25.18
2023-05-17T11:00:22.025Z,25.33
2023-05-17T11:02:50.894Z,25.40
2023-05-17T11:05:26.162Z,25.53
2023-05-17T11:08:17.361Z,25.65
2023-05-17T11:11:07.676Z,25.75
2023-05-17T11:13:47.583Z,25.90
2023-05-17T11:16:18.094Z,25.97
2023-05-17T11:18:53.317Z,26.04
2023-05-17T11:21:22.552Z,26.09
2023-05-17T11:23:55.464Z,26.06
2023-05-17T11:26:33.192Z,25.98
2023-05-17T11:29:08.290Z,26.06
2023-05-17T11:31:36.822Z,26.15
2023-05-17T11:34:04.677Z,26.20
2023-05-17T11:36:32.448Z,26.23
2023-05-17T11:39:10.803Z,26.31
2023-05-17T11:41:41.668Z,26.42
2023-05-17T11:44:10.186Z,26.51
2023-05-17T11:46:38.018Z,26.50
2023-05-17T11:49:12.119Z,26.56
2023-05-17T11:51:43.283Z,26.38
2023-05-17T11:54:10.893Z,26.25
2023-05-17T11:56:43.675Z,26.25
2023-05-17T11:59:11.790Z,26.09
2023-05-17T12:01:43.779Z,26.17
2023-05-17T12:04:11.490Z,26.19
2023-05-17T12:06:39.636Z,26.37
2023-05-17T12:09:11.379Z,26.48
2023-05-17T12:11:39.659Z,26.57
2023-05-17T12:14:07.393Z,26.60
2023-05-17T12:16:36.363Z,26.68
2023-05-17T12:19:04.197Z,26.75
2023-05-17T12:21:31.961Z,26.71
2023-05-17T12:23:59.582Z,26.71
2023-05-17T12:26:27.171Z,26.41
2023-05-17T12:28:56.554Z,26.57
2023-05-17T12:31:38.639Z,26.66
2023-05-17T12:34:06.756Z,26.71
2023-05-17T12:36:34.966Z,26.74
2023-05-17T12:39:02.658Z,26.79
2023-05-17T12:41:30.329Z,26.84
2023-05-17T12:44:13.760Z,26.90
2023-05-17T12:46:42.987Z,26.96
2023-05-17T12:49:13.931Z,27.06
2023-05-17T12:51:43.441Z,27.15
2023-05-17T12:54:31.329Z,27.21
2023-05-17T12:56:59.147Z,27.24
2023-05-17T12:59:29.183Z,27.25
2023-05-17T13:01:57.641Z,27.25
2023-05-17T13:04:32.831Z,27.24
2023-05-17T13:07:02.443Z,27.26
2023-05-17T13:09:31.138Z,27.25
2023-05-17T13:11:59.622Z,27.19
2023-05-17T13:14:44.389Z,27.13
2023-05-17T13:17:18.499Z,27.12
2023-05-17T13:19:46.300Z,27.16
2023-05-17T13:22:15.522Z,27.22
2023-05-17T13:24:43.568Z,27.12
2023-05-17T13:27:11.298Z,27.06
2023-05-17T13:29:41.805Z,27.01
2023-05-17T13:32:11.733Z,27.03
2023-05-17T13:34:39.541Z,27.03
2023-05-17T13:37:10.303Z,27.06
2023-05-17T13:39:39.989Z,27.05
2023-05-17T13:42:07.974Z,27.06
2023-05-17T13:44:36.409Z,27.06
2023-05-17T13:47:04.288Z,27.07
2023-05-17T13:49:32.887Z,27.03
2023-05-17T13:52:00.905Z,27.03
2023-05-17T13:54:28.541Z,27.00
2023-05-17T13:56:57.624Z,27.00
2023-05-17T13:59:25.493Z,27.00
2023-05-17T14:01:53.845Z,27.00
2023-05-17T14:04:21.598Z,27.03
2023-05-17T14:06:50.286Z,27.05
2023-05-17T14:09:19.078Z,27.05
2023-05-17T14:11:46.684Z,26.96
2023-05-17T14:14:14.239Z,26.88
2023-05-17T14:16:41.929Z,26.88
2023-05-17T14:19:09.732Z,26.89
2023-05-17T14:21:37.826Z,26.91
2023-05-17T14:24:05.641Z,26.89
2023-05-17T14:26:33.240Z,26.91
2023-05-17T14:29:01.077Z,26.78
2023-05-17T14:31:30.301Z,26.63
2023-05-17T14:33:58.982Z,26.63
2023-05-17T14:36:26.639Z,26.64
2023-05-17T14:38:54.325Z,26.69
2023-05-17T14:41:22.652Z,26.67
2023-05-17T14:43:50.219Z,26.66
2023-05-17T14:46:19.932Z,26.67
2023-05-17T14:48:47.594Z,26.67
2023-05-17T14:51:15.137Z,26.49
2023-05-17T14:53:43.128Z,26.54
2023-05-17T14:56:12.159Z,26.55
2023-05-17T14:58:40.521Z,26.44
2023-05-17T15:01:08.390Z,26.44
2023-05-17T15:03:36.178Z,26.47
2023-05-17T15:06:07.084Z,26.49
2023-05-17T15:08:36.070Z,26.47
2023-05-17T15:11:03.613Z,26.48
2023-05-17T15:13:31.574Z,26.47
2023-05-17T15:15:59.484Z,26.46
2023-05-17T15:18:27.128Z,26.41
2023-05-17T15:20:54.593Z,26.39
2023-05-17T15:23:22.128Z,26.41
2023-05-17T15:25:49.901Z,26.40
2023-05-17T15:28:20.000Z,26.34
2023-05-17T15:30:47.898Z,26.29
2023-05-17T15:33:15.931Z,26.26
2023-05-17T15:35:44.619Z,26.18
2023-05-17T15:38:12.210Z,26.14
2023-05-17T15:40:39.850Z,26.09
2023-05-17T15:43:07.358Z,26.00
2023-05-17T15:45:35.015Z,25.95
2023-05-17T15:48:02.677Z,25.94
2023-05-17T15:50:31.132Z,25.88
2023-05-17T15:53:00.163Z,25.86
2023-05-17T15:55:28.910Z,25.76
2023-05-17T15:57:56.689Z,25.74
2023-05-17T16:00:24.294Z,25.71
2023-05-17T16:02:52.074Z,25.66
2023-05-17T16:05:19.760Z,25.59
2023-05-17T16:07:48.175Z,25.54
2023-05-17T16:10:16.173Z,25.48
2023-05-17T16:12:44.086Z,25.38
2023-05-17T16:15:11.742Z,25.28
2023-05-17T16:17:39.569Z,25.22
2023-05-17T16:20:08.164Z,25.16
2023-05-17T16:22:36.069Z,25.12
2023-05-17T16:25:04.959Z,25.06
2023-05-17T16:27:32.670Z,25.01
2023-05-17T16:30:00.220Z,24.95
2023-05-17T16:32:27.912Z,24.84
2023-05-17T16:34:55.585Z,24.73
2023-05-17T16:37:23.176Z,24.61
2023-05-17T16:39:50.746Z,24.53
2023-05-17T16:42:18.833Z,24.46
2023-05-17T16:44:46.418Z,24.40
2023-05-17T16:47:14.079Z,24.28
2023-05-17T16:49:42.550Z,24.17
2023-05-17T16:52:10.327Z,24.08
2023-05-17T16:54:38.763Z,23.97
2023-05-17T16:57:08.450Z,23.87
2023-05-17T16:59:36.289Z,23.79
2023-05-17T17:02:04.479Z,23.70
2023-05-17T17:04:32.238Z,23.58
2023-05-17T17:07:00.313Z,23.48
2023-05-17T17:09:27.952Z,23.37
2023-05-17T17:11:55.582Z,23.30
2023-05-17T17:14:24.349Z,23.26
2023-05-17T17:16:52.006Z,23.16
2023-05-17T17:19:19.871Z,23.10
2023-05-17T17:21:47.620Z,23.04
2023-05-17T17:24:15.407Z,22.94
2023-05-17T17:26:43.106Z,22.86
2023-05-17T17:29:10.665Z,22.79
2023-05-17T17:31:38.307Z,22.73
2023-05-17T17:34:06.046Z,22.70
2023-05-17T17:36:33.647Z,22.66
2023-05-17T17:39:01.223Z,22.59
2023-05-17T17:41:29.022Z,22.55
2023-05-17T17:43:58.674Z,22.48
2023-05-17T17:46:26.413Z,22.43
2023-05-17T17:48:56.599Z,22.36
2023-05-17T17:51:24.469Z,22.31
2023-05-17T17:53:53.820Z,22.26
2023-05-17T17:56:21.604Z,22.20
2023-05-17T17:58:49.166Z,22.17
2023-05-17T18:01:16.788Z,22.13
2023-05-17T18:03:44.387Z,22.10
2023-05-17T18:06:12.074Z,22.04
2023-05-17T18:08:39.888Z,21.96
2023-05-17T18:11:07.515Z,21.91
2023-05-17T18:13:35.233Z,21.87
2023-05-17T18:16:02.927Z,21.83
2023-05-17T18:18:30.637Z,21.81
2023-05-17T18:20:58.660Z,21.77
2023-05-17T18:23:26.361Z,21.75
2023-05-17T18:25:53.997Z,21.70
2023-05-17T18:28:30.095Z,21.69
2023-05-17T18:31:05.947Z,21.63
2023-05-17T18:33:34.976Z,21.62
2023-05-17T18:36:02.612Z,21.58
2023-05-17T18:38:30.422Z,21.55
2023-05-17T18:40:57.971Z,21.51
2023-05-17T18:43:25.731Z,21.47
2023-05-17T18:45:53.329Z,21.44
2023-05-17T18:48:22.311Z,21.40
2023-05-17T18:50:49.883Z,21.36
2023-05-17T18:53:18.084Z,21.34
2023-05-17T18:55:45.882Z,21.30
2023-05-17T18:58:14.093Z,21.30
2023-05-17T19:00:42.240Z,21.25
2023-05-17T19:03:09.827Z,21.21
2023-05-17T19:05:38.013Z,21.18
2023-05-17T19:08:05.845Z,21.14
2023-05-17T19:10:33.459Z,21.12
2023-05-17T19:13:01.264Z,21.11
2023-05-17T19:15:29.162Z,21.09
2023-05-17T19:17:56.936Z,21.06
2023-05-17T19:20:24.765Z,21.02
2023-05-17T19:22:52.384Z,20.99
2023-05-17T19:25:21.800Z,20.93
2023-05-17T19:27:49.373Z,20.90
2023-05-17T19:30:17.191Z,20.84
2023-05-17T19:32:45.488Z,20.81
2023-05-17T19:35:13.056Z,20.75
2023-05-17T19:37:40.706Z,20.71
2023-05-17T19:40:09.014Z,20.67
2023-05-17T19:42:36.763Z,20.61
2023-05-17T19:45:04.644Z,20.56
2023-05-17T19:47:32.815Z,20.52
2023-05-17T19:50:01.477Z,20.48
2023-05-17T19:52:29.225Z,20.43
2023-05-17T19:54:56.916Z,20.38
2023-05-17T19:57:24.743Z,20.32
2023-05-17T19:59:53.006Z,20.28
2023-05-17T20:02:21.078Z,20.23
2023-05-17T20:04:48.782Z,20.19
2023-05-17T20:07:17.502Z,20.13
2023-05-17T20:09:45.063Z,20.09
2023-05-17T20:12:13.145Z,20.06
2023-05-17T20:14:40.748Z,20.00
2023-05-17T20:17:08.385Z,19.97
2023-05-17T20:19:38.318Z,19.92
2023-05-17T20:22:06.306Z,19.88
2023-05-17T20:24:35.033Z,19.84
2023-05-17T20:27:02.782Z,19.80
2023-05-17T20:29:31.033Z,19.76
2023-05-17T20:31:58.868Z,19.74
2023-05-17T20:34:29.222Z,19.70
2023-05-17T20:36:56.905Z,19.64
2023-05-17T20:39:28.047Z,19.61
2023-05-17T20:41:56.961Z,19.58
2023-05-17T20:44:26.007Z,19.55
2023-05-17T20:46:54.566Z,19.51
2023-05-17T20:49:22.103Z,19.48
2023-05-17T20:51:49.671Z,19.45
2023-05-17T20:54:17.095Z,19.41
2023-05-17T20:56:44.651Z,19.37
2023-05-17T20:59:12.004Z,19.34
2023-05-17T21:01:39.841Z,19.31
2023-05-17T21:04:07.283Z,19.26
2023-05-17T21:06:36.426Z,19.23
2023-05-17T21:09:04.009Z,19.18
2023-05-17T21:11:31.468Z,19.13
2023-05-17T21:13:59.903Z,19.10
2023-05-17T21:16:27.462Z,19.06
2023-05-17T21:18:55.260Z,19.02
2023-05-17T21:21:22.725Z,18.97
2023-05-17T21:23:51.201Z,18.94
2023-05-17T21:26:18.723Z,18.91
2023-05-17T21:28:46.218Z,18.89
2023-05-17T21:31:13.787Z,18.87
2023-05-17T21:33:41.270Z,18.84
2023-05-17T21:36:08.710Z,18.82
2023-05-17T21:38:36.142Z,18.80
2023-05-17T21:41:03.570Z,18.78
2023-05-17T21:43:31.568Z,18.75
2023-05-17T21:45:58.972Z,18.74
2023-05-17T21:48:26.466Z,18.70
2023-05-17T21:50:53.916Z,18.65
2023-05-17T21:53:21.618Z,18.62
2023-05-17T21:56:01.291Z,18.58
2023-05-17T21:58:31.458Z,18.52
2023-05-17T22:00:58.882Z,18.48
2023-05-17T22:03:26.370Z,18.46
2023-05-17T22:05:53.830Z,18.45
2023-05-17T22:08:21.333Z,18.43
2023-05-17T22:10:50.246Z,18.38
2023-05-17T22:13:18.489Z,18.36
2023-05-17T22:15:46.153Z,18.34
2023-05-17T22:18:13.911Z,18.32
2023-05-17T22:20:41.439Z,18.29
2023-05-17T22:23:08.931Z,18.23
2023-05-17T22:25:36.486Z,18.20
2023-05-17T22:28:03.986Z,18.19
2023-05-17T22:30:31.721Z,18.17
2023-05-17T22:33:01.046Z,18.16
2023-05-17T22:35:29.041Z,18.14
2023-05-17T22:37:56.517Z,18.13
2023-05-17T22:40:24.015Z,18.12
2023-05-17T22:42:52.042Z,18.11
2023-05-17T22:45:19.545Z,18.08
2023-05-17T22:47:47.049Z,18.08
2023-05-17T22:50:15.935Z,18.04
2023-05-17T22:52:43.582Z,18.04
2023-05-17T22:55:11.329Z,18.02
2023-05-17T22:57:38.878Z,18.00
2023-05-17T23:00:09.134Z,17.98
2023-05-17T23:02:36.903Z,17.93
2023-05-17T23:05:04.779Z,17.90
2023-05-17T23:07:37.166Z,17.89
2023-05-17T23:10:08.905Z,17.87
2023-05-17T23:12:37.901Z,17.84
2023-05-17T23:15:06.226Z,17.83
2023-05-17T23:17:33.880Z,17.83
2023-05-17T23:20:10.492Z,17.81
2023-05-17T23:22:38.989Z,17.78
2023-05-17T23:25:06.793Z,17.77
2023-05-17T23:27:35.395Z,17.76
2023-05-17T23:30:03.101Z,17.75
2023-05-17T23:32:34.983Z,17.74
2023-05-17T23:35:05.880Z,17.71
2023-05-17T23:37:33.746Z,17.69
2023-05-17T23:40:01.866Z,17.67
2023-05-17T23:42:29.606Z,17.66
2023-05-17T23:44:57.908Z,17.64
2023-05-17T23:47:25.852Z,17.61
2023-05-17T23:49:53.304Z,17.58
2023-05-17T23:52:20.995Z,17.55
2023-05-17T23:54:48.561Z,17.55
2023-05-17T23:57:16.411Z,17.53
2023-05-17T23:59:44.030Z,17.50
